FWKI/LLW METAR and TAF weather

Enter ICAO airport designator
Station Type Date Time Source
FWKI METAR 2022/11/27 08:00 UTC NOAA

FWKI 270800Z 06010G20KT 9999 FEW028 27/14 Q1016 NOSIG


Station Type Date Time Source
FWKI Decoded METAR 2022/11/27 08:00 UTC NOAA

Lilongwe International Airport, Malawi (FWKI) 13-47S 033-46E 1229M
Nov 27, 2022 - 03:00 AM EST / 2022.11.27 0800 UTC
Wind: from the ENE (060 degrees) at 12 MPH (10 KT) gusting to 23 MPH (20 KT):0
Visibility: greater than 7 mile(s):0
Sky conditions: mostly clear
Temperature: 80 F (27 C)
Dew Point: 57 F (14 C)
Relative Humidity: 44%
Pressure (altimeter): 30.00 in. Hg (1016 hPa)
ob: FWKI 270800Z 06010G20KT 9999 FEW028 27/14 Q1016 NOSIG
cycle: 8

Station Type Date Time Source
FWKI TAF 2022/11/27 06:33 UTC NOAA

TAF TAF FWKI 270400Z 2706/2812 07008KT CAVOK
BECMG 2706/2708 06010G20KT 9999 SCT027
BECMG 2710/2712 06010KT 9999 FEW030CB BKN035
FM271500 08008KT CAVOK

Example: see airport list